Japan Airlines Virtual Airport Information Service

Osaka International Airport

ICAO: RJOO Country: Japan
Latitude: 34.7855 Longitude: 135.438
Latest Arrival : JAL139 (RJTT-RJOO) Latest Departure : JAL138 (RJOO-RJTT)


WX CaptureLIVE
Data provided by noaa.gov | Fetched at 07:28:00

METAR : RJOO 090600Z VRB05KT 9999 FEW015 SCT025 BKN160 28/22 Q1008 RMK 1CU015 3CU025 5AC160 A2977

TAF : RJOO 090506Z 0906/1012 21008KT 9000 -SHRA FEW008 SCT015 BKN025 TEMPO 0918/1000 3000 SHRA BR


Runway Data for RJOO
Data provided by openaviationdata.com

Runway ID Mag Var Hdg Length Elevation Surface ILS Freq ILS Id ILS Slope
14L -7 142° 5999 ft 39 ft Asphalt -- -- --
14R -7 142° 9845 ft 39 ft Asphalt -- -- --
32L -7 322° 9845 ft 39 ft Asphalt 110.1 ISK 3
32R -7 322° 5999 ft 39 ft Asphalt -- -- --

Osaka International Airport, Japan
Use only for reference purposes



Not for navigational purposes.